createdAt,value
2022-12-28T00:00:54.120Z,97.52
2022-12-28T00:02:55.727Z,97.42
2022-12-28T00:04:56.831Z,97.42
2022-12-28T00:06:58.105Z,97.52
2022-12-28T00:11:06.954Z,97.61
2022-12-28T00:13:02.424Z,97.56
2022-12-28T00:15:03.501Z,97.55
2022-12-28T00:17:04.669Z,97.61
2022-12-28T00:19:05.962Z,97.59
2022-12-28T00:21:07.105Z,97.34
2022-12-28T00:23:09.166Z,97.18
2022-12-28T00:25:10.826Z,97.2
2022-12-28T00:27:12.329Z,97.56
2022-12-28T00:29:14.366Z,97.56
2022-12-28T00:31:15.724Z,97.73
2022-12-28T00:33:16.954Z,97.82
2022-12-28T00:35:18.743Z,97.32
2022-12-28T00:37:20.504Z,97.26
2022-12-28T00:39:22.167Z,97.59
2022-12-28T00:41:24.002Z,97.12
2022-12-28T00:43:25.875Z,97.16
2022-12-28T00:45:27.386Z,96.69
2022-12-28T00:47:29.230Z,95.97
2022-12-28T00:49:30.563Z,96.14
2022-12-28T00:53:33.810Z,95.26
2022-12-28T00:55:35.034Z,95.29
2022-12-28T00:57:36.637Z,95.8
2022-12-28T00:59:38.694Z,94.5
2022-12-28T01:01:40.170Z,95.75
2022-12-28T01:03:41.767Z,95.74
2022-12-28T01:05:43.515Z,96.25
2022-12-28T01:07:45.093Z,95.87
2022-12-28T01:09:46.708Z,95.66
2022-12-28T01:11:48.164Z,95.76
2022-12-28T01:13:49.416Z,95.63
2022-12-28T01:15:50.420Z,95.15
2022-12-28T01:17:51.744Z,95.14
2022-12-28T01:19:53.992Z,95.51
2022-12-28T01:21:55.509Z,95.18
2022-12-28T01:25:58.597Z,95.69
2022-12-28T01:27:59.735Z,96.01
2022-12-28T01:30:00.955Z,96.4
2022-12-28T01:32:02.675Z,95.33
2022-12-28T01:36:05.460Z,95.82
2022-12-28T01:38:07.196Z,96.45
2022-12-28T01:40:08.566Z,96.4
2022-12-28T01:42:09.997Z,96.82
2022-12-28T01:44:11.610Z,96.7
2022-12-28T01:46:13.571Z,96.35
2022-12-28T01:48:14.957Z,95.5
2022-12-28T01:50:16.218Z,95.65
2022-12-28T01:52:17.357Z,95.24
2022-12-28T01:54:18.563Z,95.2
2022-12-28T01:56:19.960Z,94.35
2022-12-28T01:58:21.618Z,94.77
2022-12-28T02:00:23.645Z,93.78
2022-12-28T02:02:25.603Z,93.17
2022-12-28T02:04:27.416Z,93.14
2022-12-28T02:08:31.044Z,93.65
2022-12-28T02:10:42.102Z,94.31
2022-12-28T02:12:33.324Z,93.2
2022-12-28T02:14:35.217Z,94.85
2022-12-28T02:18:39.065Z,91.19
2022-12-28T02:20:40.469Z,92.12
2022-12-28T02:22:41.520Z,91.65
2022-12-28T02:24:42.652Z,91.97
2022-12-28T02:26:44.230Z,92.19
2022-12-28T02:28:45.613Z,92.34
2022-12-28T02:30:46.829Z,92.85
2022-12-28T02:32:48.649Z,93.16
2022-12-28T02:34:49.775Z,92.92
2022-12-28T02:36:50.999Z,92.57
2022-12-28T02:38:52.038Z,92.28
2022-12-28T02:40:53.459Z,92.29
2022-12-28T02:42:55.472Z,92.07
2022-12-28T02:44:57.094Z,91.89
2022-12-28T02:46:58.711Z,91.84
2022-12-28T02:49:43.894Z,91.52
2022-12-28T02:51:45.274Z,90.86
2022-12-28T02:53:47.080Z,91.65
2022-12-28T02:55:48.810Z,91.48
2022-12-28T02:57:50.715Z,90.99
2022-12-28T02:59:52.346Z,90.86
2022-12-28T03:01:54.411Z,90.78
2022-12-28T03:03:56.224Z,90.65
2022-12-28T03:05:57.927Z,90.37
2022-12-28T03:07:58.972Z,90.43
2022-12-28T03:10:00.395Z,90.32
2022-12-28T03:12:02.218Z,90.02
2022-12-28T03:14:04.133Z,89.93
2022-12-28T03:16:05.212Z,89.94
2022-12-28T03:18:06.472Z,89.38
2022-12-28T03:20:08.039Z,89.46
2022-12-28T03:22:09.115Z,89.51
2022-12-28T03:24:10.568Z,89.35
2022-12-28T03:26:12.533Z,89.17
2022-12-28T03:28:14.156Z,89.28
2022-12-28T03:30:15.564Z,89.08
2022-12-28T03:32:17.167Z,88.84
2022-12-28T03:34:19.056Z,88.99
2022-12-28T03:36:20.766Z,89.12
2022-12-28T03:38:22.255Z,88.97
2022-12-28T03:40:23.683Z,88.46
2022-12-28T03:44:26.286Z,87.86
2022-12-28T03:46:27.496Z,87.74
2022-12-28T03:48:28.564Z,87.69
2022-12-28T03:50:29.768Z,87.7
2022-12-28T03:54:32.295Z,87.5
2022-12-28T03:56:34.118Z,87.74
2022-12-28T03:58:35.508Z,87.64
2022-12-28T04:00:37.167Z,87.39
2022-12-28T04:02:38.876Z,87.06
2022-12-28T04:04:40.606Z,86.74
2022-12-28T04:06:42.094Z,86.79
2022-12-28T04:08:43.435Z,86.99
2022-12-28T04:10:44.946Z,87.14
2022-12-28T04:12:46.251Z,86.51
2022-12-28T04:14:47.559Z,86.31
2022-12-28T04:16:48.836Z,86.61
2022-12-28T04:18:49.793Z,87.01
2022-12-28T04:20:51.385Z,86.93
2022-12-28T04:22:52.370Z,86.53
2022-12-28T04:24:53.884Z,86.15
2022-12-28T04:26:55.596Z,85.89
2022-12-28T04:28:57.341Z,85.7
2022-12-28T04:30:58.937Z,85.2
2022-12-28T04:33:00.677Z,85.43
2022-12-28T04:37:03.730Z,84.85
2022-12-28T04:39:05.509Z,85.35
2022-12-28T04:41:07.067Z,85.52
2022-12-28T04:43:08.556Z,85.51
2022-12-28T04:45:10.423Z,85.29
2022-12-28T04:47:12.159Z,85.42
2022-12-28T04:49:13.410Z,85.39
2022-12-28T04:51:14.599Z,84.98
2022-12-28T04:53:16.247Z,85.07
2022-12-28T04:55:31.632Z,84.53
2022-12-28T04:57:19.784Z,84.68
2022-12-28T04:59:21.131Z,84.88
2022-12-28T05:01:23.019Z,84.95
2022-12-28T05:03:24.677Z,84.81
2022-12-28T05:05:26.272Z,84.73
2022-12-28T05:07:27.720Z,84.92
2022-12-28T05:09:28.954Z,84.51
2022-12-28T05:11:30.197Z,84.26
2022-12-28T05:13:31.981Z,84.29
2022-12-28T05:15:33.420Z,84.56
2022-12-28T05:19:36.629Z,84.86
2022-12-28T05:21:38.202Z,84.53
2022-12-28T05:23:39.243Z,84.51
2022-12-28T05:25:40.958Z,84.42
2022-12-28T05:27:42.756Z,84.32
2022-12-28T05:29:44.404Z,84.62
2022-12-28T05:31:46.285Z,84.36
2022-12-28T05:33:48.168Z,84.5
2022-12-28T05:35:50.083Z,84.68
2022-12-28T05:37:51.315Z,84.56
2022-12-28T05:39:52.895Z,84.64
2022-12-28T05:41:54.075Z,84.64
2022-12-28T05:43:55.161Z,84.71
2022-12-28T05:45:56.181Z,84.37
2022-12-28T05:47:57.515Z,84.27
2022-12-28T05:49:59.305Z,84.19
2022-12-28T05:52:00.637Z,84.14
2022-12-28T05:54:02.247Z,84.26
2022-12-28T05:56:03.584Z,84.08
2022-12-28T05:58:05.331Z,84.02
2022-12-28T06:02:08.385Z,84.31
2022-12-28T06:04:09.854Z,84.26
2022-12-28T06:06:11.152Z,84.56
2022-12-28T06:08:12.384Z,84.19
2022-12-28T06:10:13.892Z,84.16
2022-12-28T06:12:15.063Z,84.07
2022-12-28T06:14:16.446Z,84.09
2022-12-28T06:16:18.015Z,84.25
2022-12-28T06:18:18.934Z,84.45
2022-12-28T06:20:20.932Z,84.56
2022-12-28T06:22:22.842Z,84.51
2022-12-28T06:24:24.409Z,84.49
2022-12-28T06:26:26.303Z,84.36
2022-12-28T06:28:28.176Z,84.56
2022-12-28T06:30:29.850Z,84.71
2022-12-28T06:34:32.783Z,84.83
2022-12-28T06:36:34.482Z,84.9
2022-12-28T06:38:36.304Z,84.96
2022-12-28T06:41:02.815Z,85
2022-12-28T06:44:44.652Z,84.64
2022-12-28T06:46:51.831Z,85.01
2022-12-28T06:48:43.909Z,84.95
2022-12-28T06:50:44.964Z,84.37
2022-12-28T06:52:46.014Z,84.02
2022-12-28T06:54:47.169Z,83.84
2022-12-28T06:56:48.333Z,83.88
2022-12-28T06:58:49.485Z,83.97
2022-12-28T07:00:51.092Z,84.15
2022-12-28T07:02:52.088Z,84.2
2022-12-28T07:04:53.649Z,84.09
2022-12-28T07:06:55.492Z,84.13
2022-12-28T07:08:57.142Z,83.69
2022-12-28T07:10:58.798Z,83.47
2022-12-28T07:13:00.005Z,83.31
2022-12-28T07:15:01.351Z,83.49
2022-12-28T07:17:02.725Z,83.45
2022-12-28T07:19:04.019Z,83.52
2022-12-28T07:21:05.762Z,83.7
2022-12-28T07:23:07.205Z,83.36
2022-12-28T07:25:08.204Z,82.88
2022-12-28T07:27:09.412Z,82.81
2022-12-28T07:29:10.504Z,82.82
2022-12-28T07:31:11.536Z,83.26
2022-12-28T07:33:13.276Z,83.28
2022-12-28T07:35:14.462Z,82.88
2022-12-28T07:37:16.127Z,83.02
2022-12-28T07:39:17.426Z,82.42
2022-12-28T07:43:20.569Z,82.71
2022-12-28T07:45:22.352Z,82.59
2022-12-28T07:47:24.247Z,82.65
2022-12-28T07:49:26.172Z,82.49
2022-12-28T07:51:27.569Z,82.42
2022-12-28T07:53:29.428Z,82.82
2022-12-28T07:55:30.407Z,82.66
2022-12-28T07:57:31.996Z,82.86
2022-12-28T07:59:33.419Z,82.92
2022-12-28T08:01:35.282Z,82.84
2022-12-28T08:03:37.001Z,82.95
2022-12-28T08:05:38.402Z,83.23
2022-12-28T08:07:39.377Z,82.66
2022-12-28T08:09:40.688Z,82.64
2022-12-28T08:11:42.405Z,82.78
2022-12-28T08:13:44.223Z,82.49
2022-12-28T08:15:45.468Z,82.11
2022-12-28T08:17:46.543Z,82.11
2022-12-28T08:19:47.706Z,82.22
2022-12-28T08:21:49.587Z,82.43
2022-12-28T08:25:52.715Z,82.56
2022-12-28T08:27:54.293Z,81.66
2022-12-28T08:29:55.771Z,81.63
2022-12-28T08:31:56.762Z,82.04
2022-12-28T08:33:58.553Z,81.73
2022-12-28T08:35:59.816Z,81.72
2022-12-28T08:38:00.840Z,81.6
2022-12-28T08:40:02.782Z,81.44
2022-12-28T08:42:04.499Z,81.75
2022-12-28T08:44:05.967Z,81.56
2022-12-28T08:46:08.033Z,81.36
2022-12-28T08:48:09.738Z,80.97
2022-12-28T08:50:12.281Z,80.77
2022-12-28T08:52:12.643Z,80.5
2022-12-28T08:54:14.355Z,81.04
2022-12-28T08:56:15.520Z,81.18
2022-12-28T08:58:16.648Z,80.74
2022-12-28T09:00:17.641Z,80.44
2022-12-28T09:02:19.196Z,80.19
2022-12-28T09:04:20.806Z,80.63
2022-12-28T09:08:22.891Z,80.56
2022-12-28T09:10:24.757Z,80.59
2022-12-28T09:12:26.072Z,79.89
2022-12-28T09:14:27.629Z,79.89
2022-12-28T09:16:28.707Z,80.03
2022-12-28T09:18:30.361Z,80.34
2022-12-28T09:20:31.427Z,79.8
2022-12-28T09:22:33.110Z,79.88
2022-12-28T09:24:34.082Z,79.76
2022-12-28T09:26:35.198Z,79.13
2022-12-28T09:28:36.958Z,78.44
2022-12-28T09:30:38.228Z,78.72
2022-12-28T09:32:39.525Z,78.61
2022-12-28T09:33:23.340Z,78.79
2022-12-28T09:35:24.858Z,78.12
2022-12-28T09:37:26.389Z,77.63
2022-12-28T09:39:27.714Z,77.93
2022-12-28T09:41:28.915Z,77.75
2022-12-28T09:43:30.278Z,77.98
2022-12-28T09:45:32.045Z,77.25
2022-12-28T09:47:33.834Z,77.53
2022-12-28T09:49:34.885Z,76.53
2022-12-28T09:51:36.387Z,77.43
2022-12-28T09:53:37.361Z,77.29
2022-12-28T09:55:38.397Z,76.21
2022-12-28T09:57:39.456Z,76.03
2022-12-28T10:01:42.351Z,76.1
2022-12-28T10:03:43.499Z,76.09
2022-12-28T10:05:44.847Z,75.56
2022-12-28T10:07:46.386Z,75.2
2022-12-28T10:09:48.267Z,75.84
2022-12-28T10:11:50.165Z,75.39
2022-12-28T10:13:55.525Z,75.18
2022-12-28T10:15:52.736Z,75.55
2022-12-28T10:17:53.862Z,75.71
2022-12-28T10:19:55.467Z,75.44
2022-12-28T10:21:57.165Z,74.94
2022-12-28T10:24:31.165Z,75.35
2022-12-28T10:25:59.891Z,75.62
2022-12-28T10:28:01.650Z,75.02
2022-12-28T10:30:03.520Z,74.54
2022-12-28T10:32:04.498Z,74.81
2022-12-28T10:34:06.208Z,73.59
2022-12-28T10:36:08.026Z,74.69
2022-12-28T10:38:09.068Z,74.52
2022-12-28T10:40:10.773Z,73.56
2022-12-28T10:44:38.193Z,74.59
2022-12-28T10:46:15.156Z,73.51
2022-12-28T10:48:16.565Z,73.27
2022-12-28T10:50:36.409Z,73
2022-12-28T10:52:20.229Z,73.96
2022-12-28T10:54:27.544Z,74.06
2022-12-28T10:56:23.177Z,73.6
2022-12-28T10:58:32.024Z,72.77
2022-12-28T11:00:25.316Z,73.46
2022-12-28T11:02:26.495Z,74.14
2022-12-28T11:04:27.787Z,74.15
2022-12-28T11:06:29.452Z,73.6
2022-12-28T11:08:30.734Z,73.72
2022-12-28T11:10:32.346Z,74.14
2022-12-28T11:12:33.823Z,73.66
2022-12-28T11:16:36.324Z,73.4
2022-12-28T11:18:38.146Z,73.49
2022-12-28T11:20:38.420Z,73.63
2022-12-28T11:22:40.144Z,72.82
2022-12-28T11:26:43.310Z,72.22
2022-12-28T11:28:45.741Z,72.29
2022-12-28T11:30:47.319Z,71.35
2022-12-28T11:32:48.814Z,71.58
2022-12-28T11:34:50.402Z,70.88
2022-12-28T11:36:51.490Z,71.27
2022-12-28T11:38:54.101Z,71.99
2022-12-28T11:40:55.691Z,71.28
2022-12-28T11:42:56.976Z,70.55
2022-12-28T11:44:58.086Z,71.06
2022-12-28T11:46:59.909Z,70.75
2022-12-28T11:49:01.563Z,69.45
2022-12-28T11:51:03.728Z,70.28
2022-12-28T11:53:09.093Z,68.81
2022-12-28T11:55:06.733Z,70.27
2022-12-28T11:59:10.016Z,69.03
2022-12-28T12:01:11.493Z,69.68
2022-12-28T12:03:13.116Z,67.7
2022-12-28T12:05:14.135Z,68.9
2022-12-28T12:07:15.931Z,68.69
2022-12-28T12:09:17.774Z,69.5
2022-12-28T12:11:19.648Z,68.96
2022-12-28T12:13:20.748Z,69.68
2022-12-28T12:15:21.906Z,69.48
2022-12-28T12:17:23.033Z,69.63
2022-12-28T12:19:24.415Z,70.29
2022-12-28T12:21:25.911Z,70.43
2022-12-28T12:23:26.893Z,70.33
2022-12-28T12:25:28.307Z,70.31
2022-12-28T12:27:29.617Z,70.03
2022-12-28T12:29:31.065Z,70.96
2022-12-28T12:31:32.122Z,70.93
2022-12-28T12:33:33.018Z,71.08
2022-12-28T12:35:34.381Z,70.51
2022-12-28T12:37:35.347Z,70.88
2022-12-28T12:39:36.293Z,70
2022-12-28T12:41:38.091Z,70.17
2022-12-28T12:43:39.299Z,70.03
2022-12-28T12:45:40.527Z,70.26
2022-12-28T12:47:41.944Z,70.18
2022-12-28T12:49:43.023Z,69.73
2022-12-28T12:51:44.696Z,70.5
2022-12-28T12:53:48.616Z,70.53
2022-12-28T12:55:47.790Z,70.68
2022-12-28T12:57:49.655Z,70.78
2022-12-28T12:59:51.206Z,70.72
2022-12-28T13:01:52.583Z,70.88
2022-12-28T13:03:53.515Z,70.7
2022-12-28T13:07:56.895Z,70.87
2022-12-28T13:09:58.595Z,70.42
2022-12-28T13:12:00.124Z,71.25
2022-12-28T13:14:01.469Z,70.89
2022-12-28T13:16:03.139Z,70.97
2022-12-28T13:18:42.812Z,70.83
2022-12-28T13:20:05.280Z,71.2
2022-12-28T13:22:06.347Z,71.95
2022-12-28T13:24:07.776Z,71.64
2022-12-28T13:26:09.547Z,71.41
2022-12-28T13:28:11.236Z,71.55
2022-12-28T13:30:12.705Z,71.51
2022-12-28T13:32:14.372Z,71.8
2022-12-28T13:34:15.380Z,71.96
2022-12-28T13:36:16.706Z,71.48
2022-12-28T13:38:18.365Z,71.91
2022-12-28T13:40:19.642Z,71.68
2022-12-28T13:42:21.354Z,71.56
2022-12-28T13:44:22.906Z,70.59
2022-12-28T13:46:24.368Z,69.11
2022-12-28T13:50:26.992Z,69.64
2022-12-28T13:52:28.201Z,70.09
2022-12-28T13:54:29.150Z,70.69
2022-12-28T13:56:30.093Z,70.71
2022-12-28T13:58:31.678Z,70.8
2022-12-28T14:00:33.480Z,71.1
2022-12-28T14:02:35.024Z,71
2022-12-28T14:04:52.048Z,71.53
2022-12-28T14:06:37.524Z,71.57
2022-12-28T14:08:39.328Z,70.95
2022-12-28T14:10:40.717Z,71.71
2022-12-28T14:12:41.894Z,72.11
2022-12-28T14:14:43.677Z,72.71
2022-12-28T14:16:44.761Z,72.44
2022-12-28T14:18:45.925Z,71.69
2022-12-28T14:22:49.196Z,72.11
2022-12-28T14:24:50.251Z,71.95
2022-12-28T14:26:51.709Z,72.12
2022-12-28T14:28:53.285Z,72.17
2022-12-28T14:30:55.139Z,72.55
2022-12-28T14:32:56.608Z,72.01
2022-12-28T14:34:57.738Z,72.04
2022-12-28T14:39:04.602Z,72.36
2022-12-28T14:43:04.006Z,72.7
2022-12-28T14:45:05.178Z,72.13
2022-12-28T14:47:06.879Z,71.5
2022-12-28T14:49:08.445Z,72.23
2022-12-28T14:51:09.608Z,73.04
2022-12-28T14:53:10.805Z,72.86
2022-12-28T14:55:11.800Z,73.08
2022-12-28T14:57:13.499Z,73.54
2022-12-28T14:59:14.799Z,73.61
2022-12-28T15:01:15.878Z,73.65
2022-12-28T15:03:17.700Z,74.17
2022-12-28T15:05:18.818Z,74.32
2022-12-28T15:07:20.710Z,74.32
2022-12-28T15:09:21.670Z,74.42
2022-12-28T15:11:23.294Z,74.12
2022-12-28T15:13:24.269Z,74.1
2022-12-28T15:17:31.526Z,74.31
2022-12-28T15:19:28.045Z,74.11
2022-12-28T15:21:29.114Z,73.84
2022-12-28T15:23:30.754Z,74.27
2022-12-28T15:25:32.086Z,74.23
2022-12-28T15:27:33.864Z,74.2
2022-12-28T15:30:04.819Z,74.56
2022-12-28T15:31:36.206Z,74.43
2022-12-28T15:33:37.586Z,74.82
2022-12-28T15:35:38.654Z,74.44
2022-12-28T15:37:40.474Z,74.63
2022-12-28T15:39:41.808Z,73.91
2022-12-28T15:41:43.475Z,74.3
2022-12-28T15:43:44.493Z,74.67
2022-12-28T15:45:46.158Z,75.26
2022-12-28T15:47:47.229Z,74.98
2022-12-28T15:49:49.141Z,75.42
2022-12-28T15:51:50.573Z,75.09
2022-12-28T15:53:52.463Z,74.87
2022-12-28T15:55:53.620Z,74.53
2022-12-28T15:59:56.397Z,74.32
2022-12-28T16:01:57.916Z,75.08
2022-12-28T16:03:58.673Z,74.72
2022-12-28T16:06:00.126Z,74.97
2022-12-28T16:08:01.810Z,74.88
2022-12-28T16:10:03.260Z,74.87
2022-12-28T16:12:04.552Z,74.91
2022-12-28T16:14:05.943Z,74.93
2022-12-28T16:16:07.524Z,75.15
2022-12-28T16:18:08.761Z,75.54
2022-12-28T16:18:52.599Z,75.47
2022-12-28T16:20:53.730Z,75.78
2022-12-28T16:22:55.503Z,75.73
2022-12-28T16:24:56.666Z,75.78
2022-12-28T16:26:58.212Z,76.27
2022-12-28T16:28:59.466Z,76.54
2022-12-28T16:31:00.601Z,76.33
2022-12-28T16:33:02.060Z,76.36
2022-12-28T16:35:03.229Z,76.3
2022-12-28T16:37:05.001Z,76.12
2022-12-28T16:39:06.577Z,76.71
2022-12-28T16:41:07.951Z,76.88
2022-12-28T16:43:09.562Z,76.17
2022-12-28T16:45:10.497Z,76.12
2022-12-28T16:47:12.014Z,75.94
2022-12-28T16:49:13.269Z,76.11
2022-12-28T16:53:18.939Z,76.33
2022-12-28T16:55:16.950Z,76.39
2022-12-28T16:57:17.968Z,76.78
2022-12-28T16:59:19.345Z,76.04
2022-12-28T17:01:20.938Z,76.35
2022-12-28T17:03:22.458Z,76.55
2022-12-28T17:05:23.860Z,76.32
2022-12-28T17:09:26.300Z,76.34
2022-12-28T17:11:27.611Z,76.29
2022-12-28T17:13:29.325Z,75.75
2022-12-28T17:15:30.970Z,76.16
2022-12-28T17:17:32.002Z,76.09
2022-12-28T17:19:33.569Z,76.2
2022-12-28T17:21:35.162Z,76.37
2022-12-28T17:25:37.837Z,76.61
2022-12-28T17:27:39.313Z,76.64
2022-12-28T17:29:41.101Z,76.92
2022-12-28T17:31:42.410Z,76.71
2022-12-28T17:35:45.323Z,76.95
2022-12-28T17:37:47.041Z,77.23
2022-12-28T17:39:48.872Z,77.04
2022-12-28T17:41:50.270Z,76.59
2022-12-28T17:43:51.678Z,76.44
2022-12-28T17:45:52.958Z,77.18
2022-12-28T17:47:54.352Z,76.76
2022-12-28T17:49:56.066Z,76.69
2022-12-28T17:51:57.870Z,76.34
2022-12-28T17:53:58.837Z,76.49
2022-12-28T17:56:00.256Z,76.02
2022-12-28T17:58:01.998Z,75.65
2022-12-28T18:00:03.715Z,75.61
2022-12-28T18:02:04.921Z,75.38
2022-12-28T18:04:06.178Z,75.84
2022-12-28T18:06:07.201Z,75.13
2022-12-28T18:08:08.613Z,75.62
2022-12-28T18:10:10.156Z,75.21
2022-12-28T18:12:11.648Z,74.97
2022-12-28T18:14:12.768Z,74.63
2022-12-28T18:16:13.922Z,74.76
2022-12-28T18:18:15.209Z,74.21
2022-12-28T18:20:16.729Z,74.61
2022-12-28T18:24:19.988Z,74.99
2022-12-28T18:26:21.520Z,75.1
2022-12-28T18:28:22.667Z,74.94
2022-12-28T18:30:23.706Z,74.78
2022-12-28T18:34:26.284Z,75.06
2022-12-28T18:36:27.446Z,74.86
2022-12-28T18:38:29.176Z,74.45
2022-12-28T18:40:30.439Z,74.29
2022-12-28T18:42:31.414Z,74.86
2022-12-28T18:44:32.921Z,74.09
2022-12-28T18:46:34.028Z,74.23
2022-12-28T18:48:35.032Z,74.02
2022-12-28T18:50:36.485Z,73.73
2022-12-28T18:52:37.859Z,73.65
2022-12-28T18:54:38.877Z,73.17
2022-12-28T18:56:40.304Z,73.16
2022-12-28T18:58:41.546Z,73.33
2022-12-28T19:00:43.056Z,72.74
2022-12-28T19:02:44.359Z,72.88
2022-12-28T19:04:45.829Z,72.7
2022-12-28T19:06:47.429Z,72.75
2022-12-28T19:08:48.975Z,72.56
2022-12-28T19:10:50.862Z,72.45
2022-12-28T19:12:52.712Z,72.1
2022-12-28T19:16:55.097Z,71.73
2022-12-28T19:18:57.037Z,72.31
2022-12-28T19:20:58.648Z,71.62
2022-12-28T19:22:59.690Z,71.47
2022-12-28T19:25:00.797Z,71.41
2022-12-28T19:27:01.843Z,71.61
2022-12-28T19:29:03.581Z,71.13
2022-12-28T19:31:05.209Z,70.29
2022-12-28T19:33:06.331Z,70.99
2022-12-28T19:35:07.419Z,70.7
2022-12-28T19:37:09.144Z,70.32
2022-12-28T19:39:10.497Z,70.25
2022-12-28T19:41:11.886Z,70.73
2022-12-28T19:43:13.839Z,70.52
2022-12-28T19:45:15.043Z,70.11
2022-12-28T19:49:18.060Z,70.17
2022-12-28T19:51:19.377Z,70.57
2022-12-28T19:53:20.980Z,70.87
2022-12-28T19:55:22.386Z,70.52
2022-12-28T19:59:25.217Z,70.41
2022-12-28T20:01:26.277Z,70.63
2022-12-28T20:03:27.579Z,70.21
2022-12-28T20:05:29.294Z,70.08
2022-12-28T20:07:31.124Z,69.92
2022-12-28T20:09:32.833Z,70.28
2022-12-28T20:11:33.853Z,70.35
2022-12-28T20:13:35.551Z,70.57
2022-12-28T20:15:37.179Z,70.31
2022-12-28T20:17:38.353Z,70.51
2022-12-28T20:19:40.173Z,70.15
2022-12-28T20:21:41.271Z,70.61
2022-12-28T20:23:42.564Z,70.89
2022-12-28T20:25:44.007Z,70.56
2022-12-28T20:27:45.686Z,70.4
2022-12-28T20:29:46.760Z,70.65
2022-12-28T20:31:48.562Z,70.72
2022-12-28T20:33:50.216Z,70.32
2022-12-28T20:35:51.949Z,70.04
2022-12-28T20:37:53.769Z,70.08
2022-12-28T20:41:56.880Z,70.33
2022-12-28T20:43:58.074Z,70.77
2022-12-28T20:45:59.211Z,70.12
2022-12-28T20:48:00.453Z,70.02
2022-12-28T20:50:02.184Z,70.2
2022-12-28T20:52:03.962Z,70.03
2022-12-28T20:54:05.087Z,70.45
2022-12-28T20:56:06.531Z,70.62
2022-12-28T20:58:08.448Z,70.36
2022-12-28T21:00:10.054Z,70.61
2022-12-28T21:02:11.741Z,71.33
2022-12-28T21:04:12.906Z,70.88
2022-12-28T21:06:14.063Z,70.8
2022-12-28T21:08:15.743Z,70.16
2022-12-28T21:10:17.161Z,70.65
2022-12-28T21:12:18.182Z,70.59
2022-12-28T21:14:19.579Z,70.13
2022-12-28T21:16:21.358Z,70.31
2022-12-28T21:18:22.849Z,70.2
2022-12-28T21:20:24.319Z,70.5
2022-12-28T21:22:25.985Z,70.62
2022-12-28T21:24:27.048Z,70.37
2022-12-28T21:26:28.851Z,70.25
2022-12-28T21:30:32.272Z,70.54
2022-12-28T21:32:33.954Z,70.79
2022-12-28T21:34:35.065Z,71.16
2022-12-28T21:36:37.002Z,70.73
2022-12-28T21:40:39.323Z,70.48
2022-12-28T21:42:40.846Z,70.17
2022-12-28T21:44:41.807Z,70.34
2022-12-28T21:46:43.454Z,70.06
2022-12-28T21:48:44.415Z,69.9
2022-12-28T21:50:45.679Z,69.53
2022-12-28T21:52:47.051Z,70.07
2022-12-28T21:54:48.123Z,70.09
2022-12-28T21:56:49.152Z,70.4
2022-12-28T21:58:50.294Z,70.08
2022-12-28T22:00:52.180Z,70.34
2022-12-28T22:02:53.738Z,70.59
2022-12-28T22:05:00.382Z,70.99
2022-12-28T22:06:56.208Z,70.2
2022-12-28T22:08:57.188Z,70.35
2022-12-28T22:10:58.349Z,70.72
2022-12-28T22:13:00.252Z,70.51
2022-12-28T22:15:02.096Z,70.73
2022-12-28T22:17:03.329Z,70.94
2022-12-28T22:19:04.914Z,70.53
2022-12-28T22:23:07.352Z,71.32
2022-12-28T22:25:08.772Z,70.64
2022-12-28T22:27:10.273Z,70.56
2022-12-28T22:29:11.782Z,70.79
2022-12-28T22:31:13.257Z,70.74
2022-12-28T22:33:14.520Z,71.17
2022-12-28T22:35:15.556Z,71.35
2022-12-28T22:37:17.507Z,71
2022-12-28T22:39:18.978Z,71.48
2022-12-28T22:41:20.432Z,71.13
2022-12-28T22:43:22.075Z,71.14
2022-12-28T22:45:23.702Z,70.99
2022-12-28T22:47:25.357Z,71.36
2022-12-28T22:49:26.263Z,71.92
2022-12-28T22:51:27.692Z,71.97
2022-12-28T22:55:29.929Z,72.45
2022-12-28T22:57:31.392Z,71.55
2022-12-28T22:59:32.638Z,71.54
2022-12-28T23:01:34.386Z,71.76
2022-12-28T23:04:19.992Z,71.43
2022-12-28T23:06:21.220Z,71.81
2022-12-28T23:08:23.159Z,71.62
2022-12-28T23:10:24.738Z,71.88
2022-12-28T23:12:26.523Z,72.03
2022-12-28T23:14:28.351Z,72.23
2022-12-28T23:16:29.799Z,71.95
2022-12-28T23:18:31.341Z,72.36
2022-12-28T23:20:33.121Z,72.36
2022-12-28T23:22:34.409Z,71.99
2022-12-28T23:24:35.588Z,72.24
2022-12-28T23:26:36.548Z,72.13
2022-12-28T23:28:38.009Z,72.31
2022-12-28T23:30:39.577Z,71.95
2022-12-28T23:32:41.255Z,72.33
2022-12-28T23:34:42.225Z,72.59
2022-12-28T23:36:43.196Z,72.38
2022-12-28T23:38:44.920Z,72.32
2022-12-28T23:40:46.371Z,72.4
2022-12-28T23:42:48.050Z,71.76
2022-12-28T23:44:49.869Z,72.15
2022-12-28T23:48:51.964Z,72.05
2022-12-28T23:50:53.060Z,71.97
2022-12-28T23:52:54.870Z,72.57
2022-12-28T23:54:56.632Z,72.25
2022-12-28T23:58:59.050Z,72.36
